Ship Status Report: callsign WBW8296

sailwx.info

Track history (hours):
 
Tides and Currents Weather Stations Pressure Air Temp Water Temp Dewpoint Dewpoint Depression Visibility Wind Speed Wind Dir Waves Ship Positions

Callsign WBW8296 (name unknown)

Owner: SCHMETTERER, ROBERT A, KEY LARGO, FL. More information available from US FCC via Universal Licensing System and Coast Guard Vessel Documentation Center.

Last reported at 2017-Oct-13 19:10 UTC. Time now 2017-Oct-19 19:58 UTC.
Position N 25°19' W 080°17'.

Length 25 m; draft 1.7 m.

Type: Pleasure craft. MMSI: 338045148.

Date/timePositionNaut miles runAvg speedWind from/ knotsBaromVisibWave heightAir tempDewpointWater temp
2017-Oct-13 19:10N 25°19' W 080°17'0 0.0
2017-Oct-13 18:57N 25°19' W 080°17'0 0.0
2017-Oct-13 18:30N 25°19' W 080°17'0 0.0
2017-Oct-13 17:59N 25°19' W 080°17'0 0.0
2017-Oct-13 17:30N 25°19' W 080°17'  
2017-Oct-07 19:31N 25°27' W 080°10'118.9
2017-Oct-07 19:29N 25°27' W 080°10'918.4
2017-Oct-07 19:00N 25°36' W 080°07'714.3
2017-Oct-07 18:30N 25°42' W 080°12'510.7
2017-Oct-07 18:01N 25°47' W 080°11'4 8.7
2017-Oct-07 17:31N 25°52' W 080°10'3 6.4
2017-Oct-07 17:00N 25°54' W 080°08'4 7.1
2017-Oct-07 16:30N 25°58' W 080°07'3 6.3
2017-Oct-07 16:00N 26°01' W 080°07'2 4.8
2017-Oct-07 15:30N 26°03' W 080°07'1 2.4
2017-Oct-07 15:00N 26°04' W 080°07'1 2.8
2017-Oct-07 14:30N 26°06' W 080°06'1 1.8
2017-Oct-07 14:01N 26°06' W 080°07'2 4.0
2017-Oct-07 13:30N 26°07' W 080°09'1 2.6
2017-Oct-07 13:00N 26°06' W 080°10'0 0.0
2017-Oct-07 12:30N 26°06' W 080°10'0 0.0
2017-Oct-07 12:00N 26°06' W 080°10'0 0.0
2017-Oct-07 11:30N 26°06' W 080°10'0 0.0
2017-Oct-07 11:00N 26°06' W 080°10'0 0.0
2017-Oct-07 10:30N 26°06' W 080°10'0 0.0
2017-Oct-07 10:00N 26°06' W 080°10'0 0.0
2017-Oct-07 09:30N 26°06' W 080°10'0 0.0
2017-Oct-07 09:00N 26°06' W 080°10'0 0.0
2017-Oct-07 08:30N 26°06' W 080°10'0 0.0
2017-Oct-07 08:00N 26°06' W 080°10'0 0.0
2017-Oct-07 07:30N 26°06' W 080°10'0 0.0
2017-Oct-07 07:00N 26°06' W 080°10'0 0.0
2017-Oct-07 06:30N 26°06' W 080°10'0 0.0
2017-Oct-07 06:01N 26°06' W 080°10'0 0.0
2017-Oct-07 05:30N 26°06' W 080°10'0 0.0
2017-Oct-07 05:01N 26°06' W 080°10'0 0.0
2017-Oct-07 04:31N 26°06' W 080°10'0 0.0
2017-Oct-07 04:01N 26°06' W 080°10'0 0.0
2017-Oct-07 03:31N 26°06' W 080°10'0 0.0
2017-Oct-07 03:01N 26°06' W 080°10'0 0.0
2017-Oct-07 02:31N 26°06' W 080°10'0 0.0
2017-Oct-07 02:01N 26°06' W 080°10'0 0.0
2017-Oct-07 01:31N 26°06' W 080°10'0 0.0
2017-Oct-07 01:01N 26°06' W 080°10'0 0.0
2017-Oct-07 00:31N 26°06' W 080°10'0 0.0
2017-Oct-07 00:01N 26°06' W 080°10'0 0.0
2017-Oct-06 23:30N 26°06' W 080°10'0 0.0
2017-Oct-06 23:00N 26°06' W 080°10'0 0.0
2017-Oct-06 22:30N 26°06' W 080°10'0 0.0
2017-Oct-06 22:00N 26°06' W 080°10'0 0.0
2017-Oct-06 21:30N 26°06' W 080°10'0 0.0
2017-Oct-06 21:00N 26°06' W 080°10'0 0.0
2017-Oct-06 20:30N 26°06' W 080°10'0 0.0
2017-Oct-06 20:00N 26°06' W 080°10'0 0.0
2017-Oct-06 19:30N 26°06' W 080°10'0 0.0
2017-Oct-06 19:00N 26°06' W 080°10'0 0.0
2017-Oct-06 18:30N 26°06' W 080°10'0 0.0
2017-Oct-06 18:00N 26°06' W 080°10'0 0.0
2017-Oct-06 17:30N 26°06' W 080°10'0 0.0
2017-Oct-06 17:00N 26°06' W 080°10'0 0.0
2017-Oct-06 16:29N 26°06' W 080°10'0 0.0
2017-Oct-06 16:01N 26°06' W 080°10'0 0.0
2017-Oct-06 15:31N 26°06' W 080°10'0 0.0
2017-Oct-06 15:01N 26°06' W 080°10'0 0.0
2017-Oct-06 14:31N 26°06' W 080°10'0 0.0
2017-Oct-06 14:01N 26°06' W 080°10'0 0.0
2017-Oct-06 13:30N 26°06' W 080°10'0 0.0
2017-Oct-06 13:01N 26°06' W 080°10'0 0.0
2017-Oct-06 12:30N 26°06' W 080°10'0 0.0
2017-Oct-06 12:01N 26°06' W 080°10'0 0.0
2017-Oct-06 11:31N 26°06' W 080°10'0 0.0
2017-Oct-06 11:01N 26°06' W 080°10'0 0.0
2017-Oct-06 10:31N 26°06' W 080°10'0 0.0
2017-Oct-06 10:01N 26°06' W 080°10'0 0.0
2017-Oct-06 09:30N 26°06' W 080°10'0 0.0
2017-Oct-06 09:00N 26°06' W 080°10'0 0.0
2017-Oct-06 08:30N 26°06' W 080°10'0 0.0
2017-Oct-06 08:00N 26°06' W 080°10'0 0.0
2017-Oct-06 07:30N 26°06' W 080°10'0 0.0
2017-Oct-06 07:00N 26°06' W 080°10'0 0.0
2017-Oct-06 06:30N 26°06' W 080°10'0 0.0
2017-Oct-06 06:00N 26°06' W 080°10'0 0.0
2017-Oct-06 05:30N 26°06' W 080°10'0 0.0
2017-Oct-06 05:00N 26°06' W 080°10'0 0.0
2017-Oct-06 04:30N 26°06' W 080°10'0 0.0
2017-Oct-06 04:00N 26°06' W 080°10'0 0.0
2017-Oct-06 03:30N 26°06' W 080°10'0 0.0
2017-Oct-06 03:00N 26°06' W 080°10'0 0.0
2017-Oct-06 02:31N 26°06' W 080°10'0 0.0
2017-Oct-06 02:01N 26°06' W 080°10'0 0.0
2017-Oct-06 01:31N 26°06' W 080°10'0 0.0
2017-Oct-06 01:01N 26°06' W 080°10'0 0.0
2017-Oct-06 00:31N 26°06' W 080°10'0 0.0
2017-Oct-06 00:01N 26°06' W 080°10'0 0.0
2017-Oct-05 23:30N 26°06' W 080°10'0 0.0
2017-Oct-05 23:01N 26°06' W 080°10'0 0.0
2017-Oct-05 22:31N 26°06' W 080°10'0 0.0
2017-Oct-05 22:01N 26°06' W 080°10'0 0.0
2017-Oct-05 21:31N 26°06' W 080°10'0 0.0
2017-Oct-05 21:00N 26°06' W 080°10'0 0.0
2017-Oct-05 20:31N 26°06' W 080°10'0 0.1
2017-Oct-05 20:01N 26°06' W 080°10'0 0.1
2017-Oct-05 19:30N 26°06' W 080°10'0 0.0
2017-Oct-05 19:00N 26°06' W 080°10'0 0.0
2017-Oct-05 18:30N 26°06' W 080°10'0 0.0
2017-Oct-05 18:00N 26°06' W 080°10'0 0.0
2017-Oct-05 17:30N 26°06' W 080°10'0 0.0
2017-Oct-05 17:00N 26°06' W 080°10'0 0.0
2017-Oct-05 15:30N 26°06' W 080°10'0 0.0
2017-Oct-05 15:00N 26°06' W 080°10'0 0.0
2017-Oct-05 14:30N 26°06' W 080°10'0 0.0
2017-Oct-05 14:00N 26°06' W 080°10'0 0.0
2017-Oct-05 13:30N 26°06' W 080°10'0 0.0
2017-Oct-05 13:00N 26°06' W 080°10'0 0.0
2017-Oct-05 12:30N 26°06' W 080°10'0 0.0
2017-Oct-05 12:01N 26°06' W 080°10'0 0.0
2017-Oct-05 11:31N 26°06' W 080°10'0 0.0
2017-Oct-05 11:01N 26°06' W 080°10'0 0.0
2017-Oct-05 10:31N 26°06' W 080°10'0 0.0
2017-Oct-05 10:01N 26°06' W 080°10'0 0.0
2017-Oct-05 09:30N 26°06' W 080°10'0 0.0
2017-Oct-05 09:01N 26°06' W 080°10'0 0.0
2017-Oct-05 08:31N 26°06' W 080°10'0 0.0
2017-Oct-05 08:01N 26°06' W 080°10'0 0.0
2017-Oct-05 07:30N 26°06' W 080°10'0 0.0
2017-Oct-05 07:01N 26°06' W 080°10'0 0.0
2017-Oct-05 06:31N 26°06' W 080°10'0 0.0
2017-Oct-05 06:01N 26°06' W 080°10'0 0.0
2017-Oct-05 05:30N 26°06' W 080°10'0 0.0
2017-Oct-05 05:00N 26°06' W 080°10'0 0.0
2017-Oct-05 04:30N 26°06' W 080°10'0 0.0
2017-Oct-05 04:00N 26°06' W 080°10'0 0.0
2017-Oct-05 03:30N 26°06' W 080°10'0 0.0
2017-Oct-05 03:00N 26°06' W 080°10'0 0.0
2017-Oct-05 02:30N 26°06' W 080°10'0 0.0
2017-Oct-05 02:00N 26°06' W 080°10'0 0.0
2017-Oct-05 01:30N 26°06' W 080°10'0 0.0
2017-Oct-05 01:00N 26°06' W 080°10'0 0.0
2017-Oct-05 00:30N 26°06' W 080°10'0 0.0
2017-Oct-05 00:00N 26°06' W 080°10'0 0.0
2017-Oct-04 23:30N 26°06' W 080°10'0 0.0
2017-Oct-04 23:00N 26°06' W 080°10'0 0.0
2017-Oct-04 22:31N 26°06' W 080°10'0 0.0
2017-Oct-04 22:01N 26°06' W 080°10'0 0.0
2017-Oct-04 21:31N 26°06' W 080°10'0 0.0
2017-Oct-04 21:01N 26°06' W 080°10'0 0.0
2017-Oct-04 20:31N 26°06' W 080°10'0 0.0
2017-Oct-04 20:01N 26°06' W 080°10'0 0.0
2017-Oct-04 19:31N 26°06' W 080°10'0 0.0
2017-Oct-04 19:01N 26°06' W 080°10'0 0.0
2017-Oct-04 18:31N 26°06' W 080°10'0 0.0
2017-Oct-04 18:00N 26°06' W 080°10'0 0.0
2017-Oct-04 17:31N 26°06' W 080°10'0 0.0
2017-Oct-04 17:00N 26°06' W 080°10'0 0.0
2017-Oct-04 16:31N 26°06' W 080°10'0 0.0
2017-Oct-04 16:00N 26°06' W 080°10'0 0.0
2017-Oct-04 15:30N 26°06' W 080°10'0 0.0
2017-Oct-04 15:00N 26°06' W 080°10'0 0.0
2017-Oct-04 14:30N 26°06' W 080°10'0 0.0
2017-Oct-04 14:00N 26°06' W 080°10'0 0.0
2017-Oct-04 13:30N 26°06' W 080°10'0 0.0
2017-Oct-04 13:00N 26°06' W 080°10'0 0.0
2017-Oct-04 12:30N 26°06' W 080°10'0 0.0
2017-Oct-04 12:00N 26°06' W 080°10'0 0.0
2017-Oct-04 11:30N 26°06' W 080°10'0 0.0
2017-Oct-04 11:00N 26°06' W 080°10'0 0.0
2017-Oct-04 10:30N 26°06' W 080°10'0 0.0
2017-Oct-04 10:00N 26°06' W 080°10'0 0.0
2017-Oct-04 09:30N 26°06' W 080°10'0 0.0
2017-Oct-04 09:01N 26°06' W 080°10'0 0.0
2017-Oct-04 08:31N 26°06' W 080°10'0 0.0
2017-Oct-04 08:01N 26°06' W 080°10'0 0.0
2017-Oct-04 07:31N 26°06' W 080°10'0 0.0
2017-Oct-04 07:01N 26°06' W 080°10'0 0.0
2017-Oct-04 06:31N 26°06' W 080°10'0 0.0
2017-Oct-04 06:01N 26°06' W 080°10'0 0.0
2017-Oct-04 05:31N 26°06' W 080°10'0 0.0
2017-Oct-04 05:00N 26°06' W 080°10'0 0.0
2017-Oct-04 04:30N 26°06' W 080°10'0 0.0
2017-Oct-04 04:01N 26°06' W 080°10'0 0.0
2017-Oct-04 03:30N 26°06' W 080°10'0 0.0
2017-Oct-04 03:00N 26°06' W 080°10'0 0.0
2017-Oct-04 02:31N 26°06' W 080°10'0 0.0
2017-Oct-04 02:00N 26°06' W 080°10'0 0.0
2017-Oct-04 01:30N 26°06' W 080°10'0 0.0
2017-Oct-04 01:00N 26°06' W 080°10'0 0.0
2017-Oct-04 00:30N 26°06' W 080°10'0 0.0
2017-Oct-04 00:00N 26°06' W 080°10'0 0.0
2017-Oct-03 23:30N 26°06' W 080°10'0 0.0
2017-Oct-03 23:00N 26°06' W 080°10'0 0.0
2017-Oct-03 22:30N 26°06' W 080°10'0 0.0
2017-Oct-03 22:00N 26°06' W 080°10'0 0.0
2017-Oct-03 21:30N 26°06' W 080°10'0 0.0
2017-Oct-03 21:00N 26°06' W 080°10'0 0.0
2017-Oct-03 20:30N 26°06' W 080°10'0 0.2
2017-Oct-03 20:00N 26°06' W 080°10'0 0.2
2017-Oct-03 19:30N 26°06' W 080°10'  
Track history (hours):
 
Tides and Currents Weather Stations Pressure Air Temp Water Temp Dewpoint Dewpoint Depression Visibility Wind Speed Wind Dir Waves Ship Positions

Callsign WBW8296 (name unknown)

Owner: SCHMETTERER, ROBERT A, KEY LARGO, FL. More information available from US FCC via Universal Licensing System and Coast Guard Vessel Documentation Center.

Last reported at 2017-Oct-13 19:10 UTC. Time now 2017-Oct-19 19:58 UTC.
Position N 25°19' W 080°17'.

Length 25 m; draft 1.7 m.

Type: Pleasure craft. MMSI: 338045148.

Date/timePositionNaut miles runAvg speedWind from/ knotsBaromVisibWave heightAir tempDewpointWater temp
2017-Oct-13 19:10N 25°19' W 080°17'0 0.0
2017-Oct-13 18:57N 25°19' W 080°17'0 0.0
2017-Oct-13 18:30N 25°19' W 080°17'0 0.0
2017-Oct-13 17:59N 25°19' W 080°17'0 0.0
2017-Oct-13 17:30N 25°19' W 080°17'  
2017-Oct-07 19:31N 25°27' W 080°10'118.9
2017-Oct-07 19:29N 25°27' W 080°10'918.4
2017-Oct-07 19:00N 25°36' W 080°07'714.3
2017-Oct-07 18:30N 25°42' W 080°12'510.7
2017-Oct-07 18:01N 25°47' W 080°11'4 8.7
2017-Oct-07 17:31N 25°52' W 080°10'3 6.4
2017-Oct-07 17:00N 25°54' W 080°08'4 7.1
2017-Oct-07 16:30N 25°58' W 080°07'3 6.3
2017-Oct-07 16:00N 26°01' W 080°07'2 4.8
2017-Oct-07 15:30N 26°03' W 080°07'1 2.4
2017-Oct-07 15:00N 26°04' W 080°07'1 2.8
2017-Oct-07 14:30N 26°06' W 080°06'1 1.8
2017-Oct-07 14:01N 26°06' W 080°07'2 4.0
2017-Oct-07 13:30N 26°07' W 080°09'1 2.6
2017-Oct-07 13:00N 26°06' W 080°10'0 0.0
2017-Oct-07 12:30N 26°06' W 080°10'0 0.0
2017-Oct-07 12:00N 26°06' W 080°10'0 0.0
2017-Oct-07 11:30N 26°06' W 080°10'0 0.0
2017-Oct-07 11:00N 26°06' W 080°10'0 0.0
2017-Oct-07 10:30N 26°06' W 080°10'0 0.0
2017-Oct-07 10:00N 26°06' W 080°10'0 0.0
2017-Oct-07 09:30N 26°06' W 080°10'0 0.0
2017-Oct-07 09:00N 26°06' W 080°10'0 0.0
2017-Oct-07 08:30N 26°06' W 080°10'0 0.0
2017-Oct-07 08:00N 26°06' W 080°10'0 0.0
2017-Oct-07 07:30N 26°06' W 080°10'0 0.0
2017-Oct-07 07:00N 26°06' W 080°10'0 0.0
2017-Oct-07 06:30N 26°06' W 080°10'0 0.0
2017-Oct-07 06:01N 26°06' W 080°10'0 0.0
2017-Oct-07 05:30N 26°06' W 080°10'0 0.0
2017-Oct-07 05:01N 26°06' W 080°10'0 0.0
2017-Oct-07 04:31N 26°06' W 080°10'0 0.0
2017-Oct-07 04:01N 26°06' W 080°10'0 0.0
2017-Oct-07 03:31N 26°06' W 080°10'0 0.0
2017-Oct-07 03:01N 26°06' W 080°10'0 0.0
2017-Oct-07 02:31N 26°06' W 080°10'0 0.0
2017-Oct-07 02:01N 26°06' W 080°10'0 0.0
2017-Oct-07 01:31N 26°06' W 080°10'0 0.0
2017-Oct-07 01:01N 26°06' W 080°10'0 0.0
2017-Oct-07 00:31N 26°06' W 080°10'0 0.0
2017-Oct-07 00:01N 26°06' W 080°10'0 0.0
2017-Oct-06 23:30N 26°06' W 080°10'0 0.0
2017-Oct-06 23:00N 26°06' W 080°10'0 0.0
2017-Oct-06 22:30N 26°06' W 080°10'0 0.0
2017-Oct-06 22:00N 26°06' W 080°10'0 0.0
2017-Oct-06 21:30N 26°06' W 080°10'0 0.0
2017-Oct-06 21:00N 26°06' W 080°10'0 0.0
2017-Oct-06 20:30N 26°06' W 080°10'0 0.0
2017-Oct-06 20:00N 26°06' W 080°10'0 0.0
2017-Oct-06 19:30N 26°06' W 080°10'0 0.0
2017-Oct-06 19:00N 26°06' W 080°10'0 0.0
2017-Oct-06 18:30N 26°06' W 080°10'0 0.0
2017-Oct-06 18:00N 26°06' W 080°10'0 0.0
2017-Oct-06 17:30N 26°06' W 080°10'0 0.0
2017-Oct-06 17:00N 26°06' W 080°10'0 0.0
2017-Oct-06 16:29N 26°06' W 080°10'0 0.0
2017-Oct-06 16:01N 26°06' W 080°10'0 0.0
2017-Oct-06 15:31N 26°06' W 080°10'0 0.0
2017-Oct-06 15:01N 26°06' W 080°10'0 0.0
2017-Oct-06 14:31N 26°06' W 080°10'0 0.0
2017-Oct-06 14:01N 26°06' W 080°10'0 0.0
2017-Oct-06 13:30N 26°06' W 080°10'0 0.0
2017-Oct-06 13:01N 26°06' W 080°10'0 0.0
2017-Oct-06 12:30N 26°06' W 080°10'0 0.0
2017-Oct-06 12:01N 26°06' W 080°10'0 0.0
2017-Oct-06 11:31N 26°06' W 080°10'0 0.0
2017-Oct-06 11:01N 26°06' W 080°10'0 0.0
2017-Oct-06 10:31N 26°06' W 080°10'0 0.0
2017-Oct-06 10:01N 26°06' W 080°10'0 0.0
2017-Oct-06 09:30N 26°06' W 080°10'0 0.0
2017-Oct-06 09:00N 26°06' W 080°10'0 0.0
2017-Oct-06 08:30N 26°06' W 080°10'0 0.0
2017-Oct-06 08:00N 26°06' W 080°10'0 0.0
2017-Oct-06 07:30N 26°06' W 080°10'0 0.0
2017-Oct-06 07:00N 26°06' W 080°10'0 0.0
2017-Oct-06 06:30N 26°06' W 080°10'0 0.0
2017-Oct-06 06:00N 26°06' W 080°10'0 0.0
2017-Oct-06 05:30N 26°06' W 080°10'0 0.0
2017-Oct-06 05:00N 26°06' W 080°10'0 0.0
2017-Oct-06 04:30N 26°06' W 080°10'0 0.0
2017-Oct-06 04:00N 26°06' W 080°10'0 0.0
2017-Oct-06 03:30N 26°06' W 080°10'0 0.0
2017-Oct-06 03:00N 26°06' W 080°10'0 0.0
2017-Oct-06 02:31N 26°06' W 080°10'0 0.0
2017-Oct-06 02:01N 26°06' W 080°10'0 0.0
2017-Oct-06 01:31N 26°06' W 080°10'0 0.0
2017-Oct-06 01:01N 26°06' W 080°10'0 0.0
2017-Oct-06 00:31N 26°06' W 080°10'0 0.0
2017-Oct-06 00:01N 26°06' W 080°10'0 0.0
2017-Oct-05 23:30N 26°06' W 080°10'0 0.0
2017-Oct-05 23:01N 26°06' W 080°10'0 0.0
2017-Oct-05 22:31N 26°06' W 080°10'0 0.0
2017-Oct-05 22:01N 26°06' W 080°10'0 0.0
2017-Oct-05 21:31N 26°06' W 080°10'0 0.0
2017-Oct-05 21:00N 26°06' W 080°10'0 0.0
2017-Oct-05 20:31N 26°06' W 080°10'0 0.1
2017-Oct-05 20:01N 26°06' W 080°10'0 0.1
2017-Oct-05 19:30N 26°06' W 080°10'0 0.0
2017-Oct-05 19:00N 26°06' W 080°10'0 0.0
2017-Oct-05 18:30N 26°06' W 080°10'0 0.0
2017-Oct-05 18:00N 26°06' W 080°10'0 0.0
2017-Oct-05 17:30N 26°06' W 080°10'0 0.0
2017-Oct-05 17:00N 26°06' W 080°10'0 0.0
2017-Oct-05 15:30N 26°06' W 080°10'0 0.0
2017-Oct-05 15:00N 26°06' W 080°10'0 0.0
2017-Oct-05 14:30N 26°06' W 080°10'0 0.0
2017-Oct-05 14:00N 26°06' W 080°10'0 0.0
2017-Oct-05 13:30N 26°06' W 080°10'0 0.0
2017-Oct-05 13:00N 26°06' W 080°10'0 0.0
2017-Oct-05 12:30N 26°06' W 080°10'0 0.0
2017-Oct-05 12:01N 26°06' W 080°10'0 0.0
2017-Oct-05 11:31N 26°06' W 080°10'0 0.0
2017-Oct-05 11:01N 26°06' W 080°10'0 0.0
2017-Oct-05 10:31N 26°06' W 080°10'0 0.0
2017-Oct-05 10:01N 26°06' W 080°10'0 0.0
2017-Oct-05 09:30N 26°06' W 080°10'0 0.0
2017-Oct-05 09:01N 26°06' W 080°10'0 0.0
2017-Oct-05 08:31N 26°06' W 080°10'0 0.0
2017-Oct-05 08:01N 26°06' W 080°10'0 0.0
2017-Oct-05 07:30N 26°06' W 080°10'0 0.0
2017-Oct-05 07:01N 26°06' W 080°10'0 0.0
2017-Oct-05 06:31N 26°06' W 080°10'0 0.0
2017-Oct-05 06:01N 26°06' W 080°10'0 0.0
2017-Oct-05 05:30N 26°06' W 080°10'0 0.0
2017-Oct-05 05:00N 26°06' W 080°10'0 0.0
2017-Oct-05 04:30N 26°06' W 080°10'0 0.0
2017-Oct-05 04:00N 26°06' W 080°10'0 0.0
2017-Oct-05 03:30N 26°06' W 080°10'0 0.0
2017-Oct-05 03:00N 26°06' W 080°10'0 0.0
2017-Oct-05 02:30N 26°06' W 080°10'0 0.0
2017-Oct-05 02:00N 26°06' W 080°10'0 0.0
2017-Oct-05 01:30N 26°06' W 080°10'0 0.0
2017-Oct-05 01:00N 26°06' W 080°10'0 0.0
2017-Oct-05 00:30N 26°06' W 080°10'0 0.0
2017-Oct-05 00:00N 26°06' W 080°10'0 0.0
2017-Oct-04 23:30N 26°06' W 080°10'0 0.0
2017-Oct-04 23:00N 26°06' W 080°10'0 0.0
2017-Oct-04 22:31N 26°06' W 080°10'0 0.0
2017-Oct-04 22:01N 26°06' W 080°10'0 0.0
2017-Oct-04 21:31N 26°06' W 080°10'0 0.0
2017-Oct-04 21:01N 26°06' W 080°10'0 0.0
2017-Oct-04 20:31N 26°06' W 080°10'0 0.0
2017-Oct-04 20:01N 26°06' W 080°10'0 0.0
2017-Oct-04 19:31N 26°06' W 080°10'0 0.0
2017-Oct-04 19:01N 26°06' W 080°10'0 0.0
2017-Oct-04 18:31N 26°06' W 080°10'0 0.0
2017-Oct-04 18:00N 26°06' W 080°10'0 0.0
2017-Oct-04 17:31N 26°06' W 080°10'0 0.0
2017-Oct-04 17:00N 26°06' W 080°10'0 0.0
2017-Oct-04 16:31N 26°06' W 080°10'0 0.0
2017-Oct-04 16:00N 26°06' W 080°10'0 0.0
2017-Oct-04 15:30N 26°06' W 080°10'0 0.0
2017-Oct-04 15:00N 26°06' W 080°10'0 0.0
2017-Oct-04 14:30N 26°06' W 080°10'0 0.0
2017-Oct-04 14:00N 26°06' W 080°10'0 0.0
2017-Oct-04 13:30N 26°06' W 080°10'0 0.0
2017-Oct-04 13:00N 26°06' W 080°10'0 0.0
2017-Oct-04 12:30N 26°06' W 080°10'0 0.0
2017-Oct-04 12:00N 26°06' W 080°10'0 0.0
2017-Oct-04 11:30N 26°06' W 080°10'0 0.0
2017-Oct-04 11:00N 26°06' W 080°10'0 0.0
2017-Oct-04 10:30N 26°06' W 080°10'0 0.0
2017-Oct-04 10:00N 26°06' W 080°10'0 0.0
2017-Oct-04 09:30N 26°06' W 080°10'0 0.0
2017-Oct-04 09:01N 26°06' W 080°10'0 0.0
2017-Oct-04 08:31N 26°06' W 080°10'0 0.0
2017-Oct-04 08:01N 26°06' W 080°10'0 0.0
2017-Oct-04 07:31N 26°06' W 080°10'0 0.0
2017-Oct-04 07:01N 26°06' W 080°10'0 0.0
2017-Oct-04 06:31N 26°06' W 080°10'0 0.0
2017-Oct-04 06:01N 26°06' W 080°10'0 0.0
2017-Oct-04 05:31N 26°06' W 080°10'0 0.0
2017-Oct-04 05:00N 26°06' W 080°10'0 0.0
2017-Oct-04 04:30N 26°06' W 080°10'0 0.0
2017-Oct-04 04:01N 26°06' W 080°10'0 0.0
2017-Oct-04 03:30N 26°06' W 080°10'0 0.0
2017-Oct-04 03:00N 26°06' W 080°10'0 0.0
2017-Oct-04 02:31N 26°06' W 080°10'0 0.0
2017-Oct-04 02:00N 26°06' W 080°10'0 0.0
2017-Oct-04 01:30N 26°06' W 080°10'0 0.0
2017-Oct-04 01:00N 26°06' W 080°10'0 0.0
2017-Oct-04 00:30N 26°06' W 080°10'0 0.0
2017-Oct-04 00:00N 26°06' W 080°10'0 0.0
2017-Oct-03 23:30N 26°06' W 080°10'0 0.0
2017-Oct-03 23:00N 26°06' W 080°10'0 0.0
2017-Oct-03 22:30N 26°06' W 080°10'0 0.0
2017-Oct-03 22:00N 26°06' W 080°10'0 0.0
2017-Oct-03 21:30N 26°06' W 080°10'0 0.0
2017-Oct-03 21:00N 26°06' W 080°10'0 0.0
2017-Oct-03 20:30N 26°06' W 080°10'0 0.2
2017-Oct-03 20:00N 26°06' W 080°10'0 0.2
2017-Oct-03 19:30N 26°06' W 080°10'  

Dump ship's entire track history